sensor_id;sensor_type;location;lat;lon;timestamp;temperature;humidity
50989;DHT22;37008;52.210;21.112;2023-05-21T12:28:20;23.70;39.70
50989;DHT22;37008;52.210;21.112;2023-05-21T12:30:46;24.20;40.00
50989;DHT22;37008;52.210;21.112;2023-05-21T12:33:12;24.10;40.40
50989;DHT22;37008;52.210;21.112;2023-05-21T12:35:38;23.90;40.00
50989;DHT22;37008;52.210;21.112;2023-05-21T12:38:04;23.90;40.70
50989;DHT22;37008;52.210;21.112;2023-05-21T12:40:34;23.90;41.90
50989;DHT22;37008;52.210;21.112;2023-05-21T12:43:01;24.00;40.90
50989;DHT22;37008;52.210;21.112;2023-05-21T13:03:43;23.90;39.80
50989;DHT22;37008;52.210;21.112;2023-05-21T13:06:09;24.40;38.20
50989;DHT22;37008;52.210;21.112;2023-05-21T13:22:31;24.20;38.10
50989;DHT22;37008;52.210;21.112;2023-05-21T13:24:56;24.70;37.50
50989;DHT22;37008;52.210;21.112;2023-05-21T13:27:22;24.60;38.60
50989;DHT22;37008;52.210;21.112;2023-05-21T13:29:47;24.40;38.80
50989;DHT22;37008;52.210;21.112;2023-05-21T13:32:13;24.40;38.80
50989;DHT22;37008;52.210;21.112;2023-05-21T13:34:39;24.50;38.50
50989;DHT22;37008;52.210;21.112;2023-05-21T13:37:04;24.50;37.80
50989;DHT22;37008;52.210;21.112;2023-05-21T13:39:30;24.40;38.40
50989;DHT22;37008;52.210;21.112;2023-05-21T13:41:55;24.50;39.00
50989;DHT22;37008;52.210;21.112;2023-05-21T13:44:21;24.40;38.20
50989;DHT22;37008;52.210;21.112;2023-05-21T13:46:47;24.50;38.30
50989;DHT22;37008;52.210;21.112;2023-05-21T13:49:12;24.60;38.60
50989;DHT22;37008;52.210;21.112;2023-05-21T13:51:38;24.60;37.50
50989;DHT22;37008;52.210;21.112;2023-05-21T13:54:03;24.70;36.30
50989;DHT22;37008;52.210;21.112;2023-05-21T13:56:29;24.90;35.70
50989;DHT22;37008;52.210;21.112;2023-05-21T13:58:57;25.50;36.30
50989;DHT22;37008;52.210;21.112;2023-05-21T14:01:23;26.10;35.50
50989;DHT22;37008;52.210;21.112;2023-05-21T14:03:48;26.10;35.70
50989;DHT22;37008;52.210;21.112;2023-05-21T14:06:15;26.20;36.10
50989;DHT22;37008;52.210;21.112;2023-05-21T14:08:41;26.70;35.30
50989;DHT22;37008;52.210;21.112;2023-05-21T14:11:06;27.70;34.70
50989;DHT22;37008;52.210;21.112;2023-05-21T14:13:32;28.60;32.40
50989;DHT22;37008;52.210;21.112;2023-05-21T14:15:58;29.40;32.10
50989;DHT22;37008;52.210;21.112;2023-05-21T14:18:23;30.00;30.80
50989;DHT22;37008;52.210;21.112;2023-05-21T14:20:49;30.50;30.30
50989;DHT22;37008;52.210;21.112;2023-05-21T14:23:14;30.80;29.30
50989;DHT22;37008;52.210;21.112;2023-05-21T14:25:40;30.80;27.80
50989;DHT22;37008;52.210;21.112;2023-05-21T14:28:06;30.80;27.70
50989;DHT22;37008;52.210;21.112;2023-05-21T14:30:32;30.80;27.20
50989;DHT22;37008;52.210;21.112;2023-05-21T14:32:58;30.70;27.70
50989;DHT22;37008;52.210;21.112;2023-05-21T14:35:23;30.80;28.00
50989;DHT22;37008;52.210;21.112;2023-05-21T14:37:49;31.00;27.90
50989;DHT22;37008;52.210;21.112;2023-05-21T14:40:15;31.10;27.90
50989;DHT22;37008;52.210;21.112;2023-05-21T14:42:40;31.30;28.50
50989;DHT22;37008;52.210;21.112;2023-05-21T14:45:06;31.60;28.60
50989;DHT22;37008;52.210;21.112;2023-05-21T14:47:32;31.80;27.40
50989;DHT22;37008;52.210;21.112;2023-05-21T14:49:57;31.80;26.60
50989;DHT22;37008;52.210;21.112;2023-05-21T14:52:23;31.80;25.80
50989;DHT22;37008;52.210;21.112;2023-05-21T14:54:48;31.70;25.10
50989;DHT22;37008;52.210;21.112;2023-05-21T14:57:14;31.70;25.60
50989;DHT22;37008;52.210;21.112;2023-05-21T14:59:40;31.80;26.50
50989;DHT22;37008;52.210;21.112;2023-05-21T15:02:05;32.00;26.20
50989;DHT22;37008;52.210;21.112;2023-05-21T15:04:31;32.10;25.00
50989;DHT22;37008;52.210;21.112;2023-05-21T15:06:56;32.10;25.40
50989;DHT22;37008;52.210;21.112;2023-05-21T15:09:23;32.20;25.30
50989;DHT22;37008;52.210;21.112;2023-05-21T15:11:48;32.20;24.90
50989;DHT22;37008;52.210;21.112;2023-05-21T15:14:17;32.00;24.70
50989;DHT22;37008;52.210;21.112;2023-05-21T15:16:43;32.00;25.10
50989;DHT22;37008;52.210;21.112;2023-05-21T15:19:08;32.20;24.90
50989;DHT22;37008;52.210;21.112;2023-05-21T15:21:36;32.00;24.30
50989;DHT22;37008;52.210;21.112;2023-05-21T15:24:02;32.00;25.20
50989;DHT22;37008;52.210;21.112;2023-05-21T15:26:27;32.00;25.60
50989;DHT22;37008;52.210;21.112;2023-05-21T15:28:53;32.00;25.50
50989;DHT22;37008;52.210;21.112;2023-05-21T15:31:18;31.90;25.00
50989;DHT22;37008;52.210;21.112;2023-05-21T15:33:44;31.80;25.30
50989;DHT22;37008;52.210;21.112;2023-05-21T15:36:10;31.80;24.80
50989;DHT22;37008;52.210;21.112;2023-05-21T15:38:35;31.80;26.50
50989;DHT22;37008;52.210;21.112;2023-05-21T15:41:01;32.00;28.30
50989;DHT22;37008;52.210;21.112;2023-05-21T15:43:26;32.20;27.30
50989;DHT22;37008;52.210;21.112;2023-05-21T15:45:52;32.20;26.30
50989;DHT22;37008;52.210;21.112;2023-05-21T15:48:18;32.10;25.90
50989;DHT22;37008;52.210;21.112;2023-05-21T15:50:47;32.10;25.40
50989;DHT22;37008;52.210;21.112;2023-05-21T15:53:13;31.90;25.50
50989;DHT22;37008;52.210;21.112;2023-05-21T15:55:39;31.80;25.40
50989;DHT22;37008;52.210;21.112;2023-05-21T15:58:04;31.70;25.50
50989;DHT22;37008;52.210;21.112;2023-05-21T16:00:30;31.60;25.20
50989;DHT22;37008;52.210;21.112;2023-05-21T16:02:56;31.50;25.20
50989;DHT22;37008;52.210;21.112;2023-05-21T16:05:21;31.50;26.00
50989;DHT22;37008;52.210;21.112;2023-05-21T16:07:47;31.60;27.20
50989;DHT22;37008;52.210;21.112;2023-05-21T16:10:13;31.60;27.30
50989;DHT22;37008;52.210;21.112;2023-05-21T16:12:39;31.50;27.30
50989;DHT22;37008;52.210;21.112;2023-05-21T16:15:05;31.40;27.30
50989;DHT22;37008;52.210;21.112;2023-05-21T16:17:31;31.30;27.60
50989;DHT22;37008;52.210;21.112;2023-05-21T16:19:56;31.20;27.50
50989;DHT22;37008;52.210;21.112;2023-05-21T16:22:22;31.10;27.40
50989;DHT22;37008;52.210;21.112;2023-05-21T16:24:48;30.70;26.60
50989;DHT22;37008;52.210;21.112;2023-05-21T16:27:13;30.50;27.70
50989;DHT22;37008;52.210;21.112;2023-05-21T16:29:39;30.40;27.10
50989;DHT22;37008;52.210;21.112;2023-05-21T16:32:05;30.10;27.40
50989;DHT22;37008;52.210;21.112;2023-05-21T16:34:30;29.80;26.90
50989;DHT22;37008;52.210;21.112;2023-05-21T16:36:58;29.60;28.10
50989;DHT22;37008;52.210;21.112;2023-05-21T16:39:24;29.50;29.20
50989;DHT22;37008;52.210;21.112;2023-05-21T16:41:49;29.40;29.80
50989;DHT22;37008;52.210;21.112;2023-05-21T16:44:15;29.30;29.60
50989;DHT22;37008;52.210;21.112;2023-05-21T16:46:41;28.90;29.60
50989;DHT22;37008;52.210;21.112;2023-05-21T16:49:06;28.30;29.70
50989;DHT22;37008;52.210;21.112;2023-05-21T16:51:32;27.80;30.20
50989;DHT22;37008;52.210;21.112;2023-05-21T16:53:58;27.30;30.80
50989;DHT22;37008;52.210;21.112;2023-05-21T16:56:24;27.10;31.90
50989;DHT22;37008;52.210;21.112;2023-05-21T16:58:51;27.10;31.50
50989;DHT22;37008;52.210;21.112;2023-05-21T17:01:17;27.00;31.00
50989;DHT22;37008;52.210;21.112;2023-05-21T17:03:42;27.00;30.90
50989;DHT22;37008;52.210;21.112;2023-05-21T17:06:08;27.00;31.60
50989;DHT22;37008;52.210;21.112;2023-05-21T17:08:33;27.00;32.60
50989;DHT22;37008;52.210;21.112;2023-05-21T17:11:00;26.90;33.20
50989;DHT22;37008;52.210;21.112;2023-05-21T17:13:26;26.80;33.70
50989;DHT22;37008;52.210;21.112;2023-05-21T17:15:51;26.70;33.50
50989;DHT22;37008;52.210;21.112;2023-05-21T17:18:17;26.60;33.00
50989;DHT22;37008;52.210;21.112;2023-05-21T17:20:43;26.40;33.50
50989;DHT22;37008;52.210;21.112;2023-05-21T17:23:09;26.10;33.60
50989;DHT22;37008;52.210;21.112;2023-05-21T17:25:35;25.70;34.90
50989;DHT22;37008;52.210;21.112;2023-05-21T17:28:00;25.30;35.40
50989;DHT22;37008;52.210;21.112;2023-05-21T17:30:26;25.00;35.90
50989;DHT22;37008;52.210;21.112;2023-05-21T17:32:52;24.80;36.90
50989;DHT22;37008;52.210;21.112;2023-05-21T17:35:17;24.70;37.30
50989;DHT22;37008;52.210;21.112;2023-05-21T17:37:43;24.60;37.40
50989;DHT22;37008;52.210;21.112;2023-05-21T17:40:10;24.40;37.70
50989;DHT22;37008;52.210;21.112;2023-05-21T17:42:35;24.00;38.10
50989;DHT22;37008;52.210;21.112;2023-05-21T17:45:01;23.40;39.40
50989;DHT22;37008;52.210;21.112;2023-05-21T17:47:27;22.90;41.30
50989;DHT22;37008;52.210;21.112;2023-05-21T17:49:52;22.50;42.20
50989;DHT22;37008;52.210;21.112;2023-05-21T17:52:18;22.10;43.00
50989;DHT22;37008;52.210;21.112;2023-05-21T17:54:43;21.70;44.10
50989;DHT22;37008;52.210;21.112;2023-05-21T17:57:09;21.30;45.40
50989;DHT22;37008;52.210;21.112;2023-05-21T17:59:35;20.90;46.90
50989;DHT22;37008;52.210;21.112;2023-05-21T18:02:03;20.60;48.00
50989;DHT22;37008;52.210;21.112;2023-05-21T18:04:28;20.20;48.90
50989;DHT22;37008;52.210;21.112;2023-05-21T18:06:54;19.90;50.10
50989;DHT22;37008;52.210;21.112;2023-05-21T18:09:20;19.60;51.10
50989;DHT22;37008;52.210;21.112;2023-05-21T18:11:45;19.30;52.10
50989;DHT22;37008;52.210;21.112;2023-05-21T18:14:11;19.00;52.60
50989;DHT22;37008;52.210;21.112;2023-05-21T18:16:36;18.70;53.80
50989;DHT22;37008;52.210;21.112;2023-05-21T18:19:02;18.50;54.60
50989;DHT22;37008;52.210;21.112;2023-05-21T18:21:34;18.20;55.00
50989;DHT22;37008;52.210;21.112;2023-05-21T18:24:00;18.00;55.60
50989;DHT22;37008;52.210;21.112;2023-05-21T18:26:26;17.70;56.30
50989;DHT22;37008;52.210;21.112;2023-05-21T18:28:54;17.50;56.40
50989;DHT22;37008;52.210;21.112;2023-05-21T18:31:20;17.30;56.20
50989;DHT22;37008;52.210;21.112;2023-05-21T18:33:46;17.10;56.20
50989;DHT22;37008;52.210;21.112;2023-05-21T18:36:11;16.90;56.40
50989;DHT22;37008;52.210;21.112;2023-05-21T18:38:37;16.70;57.10
50989;DHT22;37008;52.210;21.112;2023-05-21T18:41:03;16.60;58.10
50989;DHT22;37008;52.210;21.112;2023-05-21T18:43:30;16.40;58.90
50989;DHT22;37008;52.210;21.112;2023-05-21T18:45:56;16.20;58.80
50989;DHT22;37008;52.210;21.112;2023-05-21T18:48:21;16.10;59.00
50989;DHT22;37008;52.210;21.112;2023-05-21T18:50:47;15.90;59.70
50989;DHT22;37008;52.210;21.112;2023-05-21T18:53:12;15.80;60.60
50989;DHT22;37008;52.210;21.112;2023-05-21T18:55:38;15.60;61.00
50989;DHT22;37008;52.210;21.112;2023-05-21T18:58:04;15.50;60.90
50989;DHT22;37008;52.210;21.112;2023-05-21T19:00:29;15.30;61.20
50989;DHT22;37008;52.210;21.112;2023-05-21T19:02:55;15.20;62.30
50989;DHT22;37008;52.210;21.112;2023-05-21T19:05:21;15.00;62.40
50989;DHT22;37008;52.210;21.112;2023-05-21T19:07:46;14.90;63.00
50989;DHT22;37008;52.210;21.112;2023-05-21T19:10:12;14.80;63.50
50989;DHT22;37008;52.210;21.112;2023-05-21T19:12:38;14.70;63.80
50989;DHT22;37008;52.210;21.112;2023-05-21T19:15:06;14.60;64.40
50989;DHT22;37008;52.210;21.112;2023-05-21T19:17:32;14.50;64.40
50989;DHT22;37008;52.210;21.112;2023-05-21T19:19:59;14.40;64.50
50989;DHT22;37008;52.210;21.112;2023-05-21T19:22:26;14.30;65.00
50989;DHT22;37008;52.210;21.112;2023-05-21T19:24:52;14.30;65.70
50989;DHT22;37008;52.210;21.112;2023-05-21T19:27:18;14.20;66.90
50989;DHT22;37008;52.210;21.112;2023-05-21T19:29:44;14.10;68.10
50989;DHT22;37008;52.210;21.112;2023-05-21T19:32:10;14.00;68.50
50989;DHT22;37008;52.210;21.112;2023-05-21T19:34:36;13.90;69.70
50989;DHT22;37008;52.210;21.112;2023-05-21T19:37:02;13.80;70.00
50989;DHT22;37008;52.210;21.112;2023-05-21T19:39:38;13.70;70.40
50989;DHT22;37008;52.210;21.112;2023-05-21T19:42:05;13.60;71.20
50989;DHT22;37008;52.210;21.112;2023-05-21T19:44:31;13.50;71.40
50989;DHT22;37008;52.210;21.112;2023-05-21T19:46:57;13.40;72.30
50989;DHT22;37008;52.210;21.112;2023-05-21T19:49:23;13.40;72.80
50989;DHT22;37008;52.210;21.112;2023-05-21T19:51:49;13.30;73.40
50989;DHT22;37008;52.210;21.112;2023-05-21T19:54:16;13.20;74.50
50989;DHT22;37008;52.210;21.112;2023-05-21T19:56:42;13.20;75.50
50989;DHT22;37008;52.210;21.112;2023-05-21T19:59:10;13.10;76.80
50989;DHT22;37008;52.210;21.112;2023-05-21T20:01:35;13.00;78.80
50989;DHT22;37008;52.210;21.112;2023-05-21T20:04:04;13.00;80.90
50989;DHT22;37008;52.210;21.112;2023-05-21T20:06:29;12.90;83.30
50989;DHT22;37008;52.210;21.112;2023-05-21T20:08:56;12.80;85.10
50989;DHT22;37008;52.210;21.112;2023-05-21T20:11:22;12.80;86.00
50989;DHT22;37008;52.210;21.112;2023-05-21T20:13:47;12.70;87.00
50989;DHT22;37008;52.210;21.112;2023-05-21T20:16:17;12.70;87.70
50989;DHT22;37008;52.210;21.112;2023-05-21T20:18:44;12.60;88.90
50989;DHT22;37008;52.210;21.112;2023-05-21T20:21:16;12.60;90.30
50989;DHT22;37008;52.210;21.112;2023-05-21T20:23:45;12.50;90.70
50989;DHT22;37008;52.210;21.112;2023-05-21T20:26:12;12.50;91.20
50989;DHT22;37008;52.210;21.112;2023-05-21T20:28:38;12.40;92.10
50989;DHT22;37008;52.210;21.112;2023-05-21T20:31:03;12.40;93.20
50989;DHT22;37008;52.210;21.112;2023-05-21T20:33:30;12.30;94.20
50989;DHT22;37008;52.210;21.112;2023-05-21T20:35:57;12.30;95.10
50989;DHT22;37008;52.210;21.112;2023-05-21T20:38:23;12.20;96.20
50989;DHT22;37008;52.210;21.112;2023-05-21T20:40:54;12.10;96.90
50989;DHT22;37008;52.210;21.112;2023-05-21T20:43:20;12.10;98.10
50989;DHT22;37008;52.210;21.112;2023-05-21T20:45:48;12.00;98.80
50989;DHT22;37008;52.210;21.112;2023-05-21T20:48:15;11.90;99.90
50989;DHT22;37008;52.210;21.112;2023-05-21T20:50:44;11.90;99.90
50989;DHT22;37008;52.210;21.112;2023-05-21T20:53:10;11.80;99.90
50989;DHT22;37008;52.210;21.112;2023-05-21T20:55:43;11.70;99.90
50989;DHT22;37008;52.210;21.112;2023-05-21T20:58:09;11.70;99.90
50989;DHT22;37008;52.210;21.112;2023-05-21T21:00:36;11.60;99.90
50989;DHT22;37008;52.210;21.112;2023-05-21T21:03:06;11.50;99.90
50989;DHT22;37008;52.210;21.112;2023-05-21T21:05:35;11.50;99.90
50989;DHT22;37008;52.210;21.112;2023-05-21T21:08:01;11.40;99.90
50989;DHT22;37008;52.210;21.112;2023-05-21T21:10:27;11.30;99.90
50989;DHT22;37008;52.210;21.112;2023-05-21T21:12:52;11.30;99.90
50989;DHT22;37008;52.210;21.112;2023-05-21T21:15:18;11.30;99.90
50989;DHT22;37008;52.210;21.112;2023-05-21T21:17:44;11.20;99.90
50989;DHT22;37008;52.210;21.112;2023-05-21T21:20:10;11.10;99.90
50989;DHT22;37008;52.210;21.112;2023-05-21T21:22:41;11.10;99.90
50989;DHT22;37008;52.210;21.112;2023-05-21T21:25:07;11.10;99.90
50989;DHT22;37008;52.210;21.112;2023-05-21T21:27:33;11.00;99.90
50989;DHT22;37008;52.210;21.112;2023-05-21T21:29:59;11.00;99.90
50989;DHT22;37008;52.210;21.112;2023-05-21T21:32:25;10.90;99.90
50989;DHT22;37008;52.210;21.112;2023-05-21T21:34:50;10.90;99.90
50989;DHT22;37008;52.210;21.112;2023-05-21T21:37:16;10.90;99.90
50989;DHT22;37008;52.210;21.112;2023-05-21T21:39:42;10.80;99.90
50989;DHT22;37008;52.210;21.112;2023-05-21T21:42:07;10.80;99.90
50989;DHT22;37008;52.210;21.112;2023-05-21T21:44:33;10.80;99.90
50989;DHT22;37008;52.210;21.112;2023-05-21T21:46:58;10.80;99.90
50989;DHT22;37008;52.210;21.112;2023-05-21T21:49:24;10.70;99.90
50989;DHT22;37008;52.210;21.112;2023-05-21T21:51:49;10.60;99.90
50989;DHT22;37008;52.210;21.112;2023-05-21T21:54:15;10.60;99.90
50989;DHT22;37008;52.210;21.112;2023-05-21T21:56:41;10.50;99.90
50989;DHT22;37008;52.210;21.112;2023-05-21T21:59:06;10.50;99.90
50989;DHT22;37008;52.210;21.112;2023-05-21T22:01:32;10.40;99.90
50989;DHT22;37008;52.210;21.112;2023-05-21T22:03:58;10.40;99.90
50989;DHT22;37008;52.210;21.112;2023-05-21T22:06:23;10.30;99.90
50989;DHT22;37008;52.210;21.112;2023-05-21T22:08:50;10.30;99.90
50989;DHT22;37008;52.210;21.112;2023-05-21T22:11:16;10.30;99.90
50989;DHT22;37008;52.210;21.112;2023-05-21T22:13:41;10.30;99.90
50989;DHT22;37008;52.210;21.112;2023-05-21T22:16:07;10.20;99.90
50989;DHT22;37008;52.210;21.112;2023-05-21T22:18:32;10.20;99.90
50989;DHT22;37008;52.210;21.112;2023-05-21T22:20:58;10.10;99.90
50989;DHT22;37008;52.210;21.112;2023-05-21T22:23:24;10.10;99.90
50989;DHT22;37008;52.210;21.112;2023-05-21T22:25:49;10.10;99.90
50989;DHT22;37008;52.210;21.112;2023-05-21T22:28:15;10.10;99.90
50989;DHT22;37008;52.210;21.112;2023-05-21T22:30:41;10.00;99.90
50989;DHT22;37008;52.210;21.112;2023-05-21T22:33:07;9.90;99.90
50989;DHT22;37008;52.210;21.112;2023-05-21T22:35:32;9.90;99.90
50989;DHT22;37008;52.210;21.112;2023-05-21T22:37:58;9.90;99.90
50989;DHT22;37008;52.210;21.112;2023-05-21T22:40:23;9.90;99.90
50989;DHT22;37008;52.210;21.112;2023-05-21T22:42:49;9.80;99.90
50989;DHT22;37008;52.210;21.112;2023-05-21T22:45:15;9.80;99.90
50989;DHT22;37008;52.210;21.112;2023-05-21T22:47:41;9.70;99.90
50989;DHT22;37008;52.210;21.112;2023-05-21T22:50:07;9.70;99.90
50989;DHT22;37008;52.210;21.112;2023-05-21T22:52:34;9.70;99.90
50989;DHT22;37008;52.210;21.112;2023-05-21T22:55:01;9.70;99.90
50989;DHT22;37008;52.210;21.112;2023-05-21T22:57:27;9.70;99.90
50989;DHT22;37008;52.210;21.112;2023-05-21T22:59:53;9.60;99.90
50989;DHT22;37008;52.210;21.112;2023-05-21T23:02:18;9.60;99.90
50989;DHT22;37008;52.210;21.112;2023-05-21T23:04:44;9.60;99.90
50989;DHT22;37008;52.210;21.112;2023-05-21T23:07:10;9.60;99.90
50989;DHT22;37008;52.210;21.112;2023-05-21T23:09:36;9.50;99.90
50989;DHT22;37008;52.210;21.112;2023-05-21T23:12:02;9.50;99.90
50989;DHT22;37008;52.210;21.112;2023-05-21T23:14:27;9.40;99.90
50989;DHT22;37008;52.210;21.112;2023-05-21T23:16:53;9.40;99.90
50989;DHT22;37008;52.210;21.112;2023-05-21T23:19:19;9.40;99.90
50989;DHT22;37008;52.210;21.112;2023-05-21T23:21:45;9.40;99.90
50989;DHT22;37008;52.210;21.112;2023-05-21T23:24:11;9.40;99.90
50989;DHT22;37008;52.210;21.112;2023-05-21T23:26:37;9.30;99.90
50989;DHT22;37008;52.210;21.112;2023-05-21T23:29:02;9.30;99.90
50989;DHT22;37008;52.210;21.112;2023-05-21T23:31:28;9.20;99.90
50989;DHT22;37008;52.210;21.112;2023-05-21T23:33:54;9.20;99.90
50989;DHT22;37008;52.210;21.112;2023-05-21T23:36:21;9.20;99.90
50989;DHT22;37008;52.210;21.112;2023-05-21T23:38:47;9.20;99.90
50989;DHT22;37008;52.210;21.112;2023-05-21T23:41:13;9.10;99.90
50989;DHT22;37008;52.210;21.112;2023-05-21T23:43:38;9.10;99.90
50989;DHT22;37008;52.210;21.112;2023-05-21T23:46:06;9.10;99.90
50989;DHT22;37008;52.210;21.112;2023-05-21T23:48:31;9.00;99.90
50989;DHT22;37008;52.210;21.112;2023-05-21T23:50:58;9.00;99.90
50989;DHT22;37008;52.210;21.112;2023-05-21T23:53:23;8.90;99.90
50989;DHT22;37008;52.210;21.112;2023-05-21T23:55:50;8.90;99.90
50989;DHT22;37008;52.210;21.112;2023-05-21T23:58:15;8.90;99.90
